createdAt,value
2022-11-25T00:01:18.879Z,100775.59
2022-11-25T00:03:45.956Z,100770.19
2022-11-25T00:06:18.692Z,100754.47
2022-11-25T00:08:47.627Z,100749.69
2022-11-25T00:11:14.605Z,100746.94
2022-11-25T00:13:41.945Z,100745.00
2022-11-25T00:16:11.658Z,100737.78
2022-11-25T00:18:38.627Z,100737.00
2022-11-25T00:21:07.305Z,100734.94
2022-11-25T00:23:33.674Z,100725.91
2022-11-25T00:26:13.785Z,100734.94
2022-11-25T00:28:41.878Z,100734.06
2022-11-25T00:31:12.752Z,100731.97
2022-11-25T00:33:40.006Z,100727.78
2022-11-25T00:36:12.454Z,100735.03
2022-11-25T00:38:38.854Z,100725.28
2022-11-25T00:41:23.972Z,100725.28
2022-11-25T00:44:08.790Z,100726.19
2022-11-25T00:46:35.105Z,100724.28
2022-11-25T00:49:01.416Z,100722.34
2022-11-25T00:51:27.718Z,100726.75
2022-11-25T00:53:58.753Z,100720.63
2022-11-25T00:56:25.834Z,100720.63
2022-11-25T00:58:53.639Z,100725.72
2022-11-25T01:01:20.154Z,100729.91
2022-11-25T01:03:49.082Z,100719.34
2022-11-25T01:06:15.406Z,100724.38
2022-11-25T01:08:41.759Z,100724.75
2022-11-25T01:11:11.340Z,100719.66
2022-11-25T01:13:39.358Z,100722.00
2022-11-25T01:16:07.586Z,100717.81
2022-11-25T01:18:34.515Z,100716.56
2022-11-25T01:21:12.914Z,100726.94
2022-11-25T01:23:39.913Z,100718.25
2022-11-25T01:26:10.139Z,100723.59
2022-11-25T01:28:36.553Z,100721.69
2022-11-25T01:31:06.255Z,100713.19
2022-11-25T01:33:34.399Z,100710.81
2022-11-25T01:36:10.019Z,100708.44
2022-11-25T01:38:36.695Z,100717.13
2022-11-25T01:41:05.719Z,100707.09
2022-11-25T01:43:32.170Z,100716.06
2022-11-25T01:46:13.662Z,100712.56
2022-11-25T01:48:47.603Z,100712.44
2022-11-25T01:51:26.063Z,100707.03
2022-11-25T01:53:56.042Z,100712.28
2022-11-25T01:56:22.671Z,100713.28
2022-11-25T01:58:49.666Z,100705.69
2022-11-25T02:01:17.672Z,100705.59
2022-11-25T02:03:48.549Z,100702.81
2022-11-25T02:06:28.672Z,100701.41
2022-11-25T02:09:08.739Z,100697.59
2022-11-25T02:11:38.161Z,100700.91
2022-11-25T02:14:05.528Z,100699.56
2022-11-25T02:16:31.889Z,100698.53
2022-11-25T02:18:58.316Z,100679.75
2022-11-25T02:21:31.068Z,100679.66
2022-11-25T02:24:14.412Z,100682.94
2022-11-25T02:26:43.721Z,100678.72
2022-11-25T02:29:10.218Z,100674.16
2022-11-25T02:31:36.629Z,100676.53
2022-11-25T02:34:02.982Z,100674.06
2022-11-25T02:36:29.325Z,100676.25
2022-11-25T02:39:00.670Z,100679.22
2022-11-25T02:41:33.306Z,100669.38
2022-11-25T02:44:03.701Z,100672.63
2022-11-25T02:46:30.811Z,100671.66
2022-11-25T02:49:14.558Z,100668.22
2022-11-25T02:51:44.620Z,100676.56
2022-11-25T02:54:13.108Z,100682.00
2022-11-25T02:56:40.272Z,100685.44
2022-11-25T02:59:08.117Z,100683.31
2022-11-25T03:01:36.103Z,100681.31
2022-11-25T03:04:05.628Z,100683.88
2022-11-25T03:06:32.142Z,100685.59
2022-11-25T03:08:58.634Z,100690.19
2022-11-25T03:11:46.390Z,100691.56
2022-11-25T03:14:13.913Z,100696.63
2022-11-25T03:16:41.870Z,100693.94
2022-11-25T03:19:08.462Z,100698.44
2022-11-25T03:21:35.162Z,100696.44
2022-11-25T03:24:01.482Z,100711.41
2022-11-25T03:26:27.821Z,100701.28
2022-11-25T03:28:54.648Z,100703.81
2022-11-25T03:31:21.166Z,100702.97
2022-11-25T03:33:47.880Z,100707.69
2022-11-25T03:36:14.632Z,100709.28
2022-11-25T03:38:41.035Z,100714.94
2022-11-25T03:41:07.405Z,100721.13
2022-11-25T03:43:35.367Z,100714.72
2022-11-25T03:46:02.054Z,100705.56
2022-11-25T03:48:28.633Z,100711.41
2022-11-25T03:50:55.062Z,100716.94
2022-11-25T03:53:23.659Z,100716.53
2022-11-25T03:55:50.447Z,100714.09
2022-11-25T03:58:19.747Z,100710.53
2022-11-25T04:00:46.161Z,100721.34
2022-11-25T04:03:12.512Z,100721.22
2022-11-25T04:05:39.162Z,100723.03
2022-11-25T04:08:07.214Z,100724.00
2022-11-25T04:10:34.878Z,100725.53
2022-11-25T04:13:01.781Z,100726.28
2022-11-25T04:15:35.148Z,100734.81
2022-11-25T04:18:01.565Z,100733.00
2022-11-25T04:20:28.135Z,100739.22
2022-11-25T04:23:02.598Z,100745.41
2022-11-25T04:25:29.051Z,100748.94
2022-11-25T04:27:55.599Z,100752.44
2022-11-25T04:30:28.234Z,100756.72
2022-11-25T04:32:55.012Z,100771.13
2022-11-25T04:35:21.917Z,100756.84
2022-11-25T04:37:52.536Z,100765.03
2022-11-25T04:40:19.014Z,100762.66
2022-11-25T04:42:50.555Z,100752.94
2022-11-25T04:45:23.991Z,100757.31
2022-11-25T04:47:52.518Z,100760.66
2022-11-25T04:50:21.329Z,100764.28
2022-11-25T04:53:00.524Z,100770.28
2022-11-25T04:55:27.231Z,100768.09
2022-11-25T04:57:53.652Z,100777.03
2022-11-25T05:00:20.759Z,100785.72
2022-11-25T05:02:48.203Z,100792.00
2022-11-25T05:05:18.798Z,100790.78
2022-11-25T05:07:45.201Z,100790.31
2022-11-25T05:10:12.728Z,100792.50
2022-11-25T05:12:43.667Z,100793.94
2022-11-25T05:15:15.359Z,100798.34
2022-11-25T05:17:44.506Z,100790.97
2022-11-25T05:20:11.290Z,100798.63
2022-11-25T05:22:37.639Z,100808.06
2022-11-25T05:25:06.231Z,100803.69
2022-11-25T05:27:36.227Z,100799.88
2022-11-25T05:30:08.223Z,100807.69
2022-11-25T05:32:34.580Z,100802.53
2022-11-25T05:35:05.215Z,100805.22
2022-11-25T05:37:31.830Z,100803.69
2022-11-25T05:40:05.456Z,100807.19
2022-11-25T05:42:52.297Z,100803.03
2022-11-25T05:45:19.721Z,100795.38
2022-11-25T05:47:46.128Z,100808.66
2022-11-25T05:50:17.095Z,100812.47
2022-11-25T05:53:00.958Z,100809.50
2022-11-25T05:55:27.980Z,100810.28
2022-11-25T05:57:55.033Z,100806.91
2022-11-25T06:00:26.370Z,100797.00
2022-11-25T06:02:53.770Z,100792.25
2022-11-25T06:05:21.359Z,100804.16
2022-11-25T06:07:48.008Z,100809.88
2022-11-25T06:10:15.427Z,100820.38
2022-11-25T06:12:42.613Z,100823.91
2022-11-25T06:15:09.787Z,100831.63
2022-11-25T06:17:37.691Z,100831.34
2022-11-25T06:20:10.883Z,100837.13
2022-11-25T06:22:37.660Z,100838.19
2022-11-25T06:25:04.953Z,100845.53
2022-11-25T06:27:56.859Z,100850.59
2022-11-25T06:30:21.212Z,100848.84
2022-11-25T06:33:00.768Z,100849.41
2022-11-25T06:35:27.192Z,100857.34
2022-11-25T06:37:59.558Z,100859.06
2022-11-25T06:40:25.979Z,100857.25
2022-11-25T06:42:52.294Z,100866.97
2022-11-25T06:45:18.592Z,100867.53
2022-11-25T06:47:44.899Z,100873.28
2022-11-25T06:50:11.626Z,100871.66
2022-11-25T06:52:37.945Z,100875.94
2022-11-25T06:55:04.606Z,100874.97
2022-11-25T06:57:30.922Z,100883.25
2022-11-25T06:59:57.218Z,100889.53
2022-11-25T07:02:23.690Z,100894.00
2022-11-25T07:04:50.021Z,100894.63
2022-11-25T07:07:16.390Z,100895.41
2022-11-25T07:09:42.775Z,100904.69
2022-11-25T07:12:09.187Z,100902.34
2022-11-25T07:14:35.792Z,100915.19
2022-11-25T07:17:04.224Z,100923.88
2022-11-25T07:19:35.614Z,100923.13
2022-11-25T07:22:02.095Z,100925.06
2022-11-25T07:24:28.399Z,100926.88
2022-11-25T07:26:54.720Z,100924.22
2022-11-25T07:29:51.673Z,100925.97
2022-11-25T07:32:10.690Z,100931.22
2022-11-25T07:34:37.911Z,100930.81
2022-11-25T07:37:04.500Z,100937.41
2022-11-25T07:39:30.866Z,100940.00
2022-11-25T07:41:57.248Z,100948.44
2022-11-25T07:44:23.576Z,100938.19
2022-11-25T07:46:53.010Z,100953.00
2022-11-25T07:49:24.737Z,100953.50
2022-11-25T07:51:56.754Z,100960.88
2022-11-25T07:54:24.329Z,100961.25
2022-11-25T07:56:51.301Z,100972.53
2022-11-25T07:59:20.152Z,100978.63
2022-11-25T08:01:48.569Z,100979.25
2022-11-25T08:04:20.226Z,100981.19
2022-11-25T08:06:49.898Z,100986.63
2022-11-25T08:09:22.270Z,100977.84
2022-11-25T08:11:49.080Z,100988.63
2022-11-25T08:14:16.159Z,100990.09
2022-11-25T08:16:42.667Z,100989.38
2022-11-25T08:19:14.023Z,100989.06
2022-11-25T08:21:40.904Z,100990.09
2022-11-25T08:24:07.456Z,100994.31
2022-11-25T08:26:37.383Z,100992.41
2022-11-25T08:29:06.254Z,101002.31
2022-11-25T08:31:37.785Z,101011.69
2022-11-25T08:34:06.169Z,101005.91
2022-11-25T08:36:33.952Z,101019.53
2022-11-25T08:39:01.869Z,101015.91
2022-11-25T08:41:32.516Z,101028.19
2022-11-25T08:44:01.264Z,101026.13
2022-11-25T08:46:30.932Z,101031.22
2022-11-25T08:48:57.370Z,101037.06
2022-11-25T08:51:28.123Z,101026.50
2022-11-25T08:53:55.480Z,101035.88
2022-11-25T08:56:26.219Z,101035.50
2022-11-25T08:58:54.206Z,101029.88
2022-11-25T09:01:22.432Z,101026.94
2022-11-25T09:03:50.912Z,101030.66
2022-11-25T09:06:18.791Z,101026.44
2022-11-25T09:08:45.840Z,101034.75
2022-11-25T09:11:12.914Z,101025.41
2022-11-25T09:13:39.359Z,101031.78
2022-11-25T09:16:06.554Z,101044.00
2022-11-25T09:18:33.084Z,101041.81
2022-11-25T09:20:59.775Z,101048.69
2022-11-25T09:23:27.029Z,101047.06
2022-11-25T09:25:58.039Z,101053.41
2022-11-25T09:28:26.016Z,101058.06
2022-11-25T09:30:52.973Z,101059.38
2022-11-25T09:33:20.415Z,101060.34
2022-11-25T09:35:48.433Z,101058.91
2022-11-25T09:38:14.748Z,101071.78
2022-11-25T09:41:37.690Z,101075.63
2022-11-25T09:44:35.093Z,101076.38
2022-11-25T09:47:14.673Z,101080.38
2022-11-25T09:49:54.791Z,101080.53
2022-11-25T09:52:44.478Z,101089.56
2022-11-25T09:55:19.541Z,101089.56
2022-11-25T09:58:26.030Z,101095.97
2022-11-25T10:00:53.297Z,101107.31
2022-11-25T10:03:41.050Z,101121.59
2022-11-25T10:06:23.605Z,101116.88
2022-11-25T10:08:58.187Z,101125.75
2022-11-25T10:11:46.653Z,101124.13
2022-11-25T10:14:25.984Z,101119.19
2022-11-25T10:17:05.576Z,101119.56
2022-11-25T10:19:56.788Z,101126.16
2022-11-25T10:22:34.987Z,101132.56
2022-11-25T10:25:23.459Z,101140.84
2022-11-25T10:27:49.850Z,101137.19
2022-11-25T10:30:20.505Z,101139.78
2022-11-25T10:32:59.222Z,101146.84
2022-11-25T10:35:35.623Z,101144.09
2022-11-25T10:38:05.514Z,101151.06
2022-11-25T10:40:31.969Z,101148.59
2022-11-25T10:43:00.266Z,101138.50
2022-11-25T10:45:33.275Z,101143.16
2022-11-25T10:48:30.992Z,101141.03
2022-11-25T10:51:19.117Z,101144.88
2022-11-25T10:54:34.628Z,101139.59
2022-11-25T10:57:03.650Z,101143.47
2022-11-25T10:59:36.179Z,101155.28
2022-11-25T11:02:19.413Z,101147.50
2022-11-25T11:05:16.123Z,101153.69
2022-11-25T11:07:45.039Z,101149.88
2022-11-25T11:10:14.459Z,101156.41
2022-11-25T11:12:58.446Z,101161.97
2022-11-25T11:15:30.472Z,101157.28
2022-11-25T11:18:00.553Z,101165.88
2022-11-25T11:20:30.162Z,101169.66
2022-11-25T11:23:10.174Z,101176.63
2022-11-25T11:25:39.376Z,101172.41
2022-11-25T11:28:38.503Z,101175.56
2022-11-25T11:31:25.385Z,101179.53
2022-11-25T11:34:11.177Z,101176.56
2022-11-25T11:37:01.127Z,101184.97
2022-11-25T11:39:59.886Z,101181.41
2022-11-25T11:42:41.467Z,101175.84
2022-11-25T11:45:25.774Z,101180.47
2022-11-25T11:48:11.306Z,101179.03
2022-11-25T11:50:46.827Z,101188.81
2022-11-25T11:53:34.394Z,101180.56
2022-11-25T11:56:41.663Z,101194.63
2022-11-25T11:59:52.510Z,101195.56
2022-11-25T12:02:22.127Z,101188.59
2022-11-25T12:05:04.651Z,101193.72
2022-11-25T12:08:08.154Z,101204.13
2022-11-25T12:11:18.950Z,101211.25
2022-11-25T12:14:01.004Z,101214.03
2022-11-25T12:16:36.204Z,101219.56
2022-11-25T12:19:19.328Z,101225.94
2022-11-25T12:22:04.122Z,101219.75
2022-11-25T12:24:51.099Z,101225.31
2022-11-25T12:27:22.844Z,101232.19
2022-11-25T12:30:07.006Z,101226.19
2022-11-25T12:33:07.120Z,101222.63
2022-11-25T12:35:58.501Z,101234.03
2022-11-25T12:38:39.605Z,101233.84
2022-11-25T12:41:39.675Z,101228.94
2022-11-25T12:44:17.237Z,101243.38
2022-11-25T12:46:47.820Z,101239.34
2022-11-25T12:49:20.121Z,101241.81
2022-11-25T12:51:56.154Z,101247.63
2022-11-25T12:54:47.880Z,101254.75
2022-11-25T12:57:41.033Z,101259.66
2022-11-25T13:00:42.239Z,101267.78
2022-11-25T13:03:14.061Z,101275.16
2022-11-25T13:05:49.904Z,101271.25
2022-11-25T13:08:27.990Z,101280.66
2022-11-25T13:11:07.698Z,101284.47
2022-11-25T13:13:53.577Z,101288.00
2022-11-25T13:16:21.392Z,101289.84
2022-11-25T13:18:48.646Z,101297.88
2022-11-25T13:21:16.712Z,101291.47
2022-11-25T13:23:49.947Z,101294.13
2022-11-25T13:26:28.560Z,101298.63
2022-11-25T13:28:56.182Z,101303.31
2022-11-25T13:31:25.408Z,101297.00
2022-11-25T13:34:02.893Z,101301.31
2022-11-25T13:36:53.053Z,101306.19
2022-11-25T13:39:37.212Z,101309.66
2022-11-25T13:42:25.739Z,101313.28
2022-11-25T13:44:54.670Z,101333.94
2022-11-25T13:47:38.675Z,101328.59
2022-11-25T13:50:24.527Z,101335.84
2022-11-25T13:53:03.195Z,101343.97
2022-11-25T13:55:36.307Z,101345.88
2022-11-25T13:58:24.499Z,101348.84
2022-11-25T14:01:02.394Z,101360.44
2022-11-25T14:03:28.706Z,101357.16
2022-11-25T14:06:16.286Z,101359.97
2022-11-25T14:08:59.870Z,101366.19
2022-11-25T14:11:41.155Z,101371.16
2022-11-25T14:14:27.386Z,101365.91
2022-11-25T14:17:31.100Z,101379.56
2022-11-25T14:20:25.385Z,101377.75
2022-11-25T14:23:41.756Z,101380.84
2022-11-25T14:26:26.829Z,101369.16
2022-11-25T14:29:17.079Z,101367.59
2022-11-25T14:31:55.560Z,101372.69
2022-11-25T14:34:29.575Z,101379.59
2022-11-25T14:37:13.671Z,101383.50
2022-11-25T14:40:03.864Z,101382.81
2022-11-25T14:42:37.238Z,101391.63
2022-11-25T14:45:19.023Z,101393.53
2022-11-25T14:47:45.801Z,101401.69
2022-11-25T14:53:06.799Z,101399.00
2022-11-25T14:55:33.135Z,101404.38
2022-11-25T14:57:59.584Z,101402.72
2022-11-25T15:00:26.306Z,101407.13
2022-11-25T15:02:58.777Z,101404.44
2022-11-25T15:05:39.400Z,101402.34
2022-11-25T15:08:17.728Z,101405.22
2022-11-25T15:10:57.944Z,101419.84
2022-11-25T15:13:32.615Z,101421.84
2022-11-25T15:16:07.978Z,101420.31
2022-11-25T15:18:35.514Z,101426.63
2022-11-25T15:21:02.406Z,101427.84
2022-11-25T15:23:34.428Z,101430.72
2022-11-25T15:26:02.143Z,101441.81
2022-11-25T15:28:38.704Z,101441.19
2022-11-25T15:31:16.255Z,101453.56
2022-11-25T15:33:44.678Z,101456.91
2022-11-25T15:36:11.333Z,101463.13
2022-11-25T15:38:43.379Z,101458.81
2022-11-25T15:41:15.552Z,101467.88
2022-11-25T15:43:46.966Z,101469.00
2022-11-25T15:46:13.456Z,101476.00
2022-11-25T15:48:46.259Z,101478.00
2022-11-25T15:51:32.919Z,101487.06
2022-11-25T15:54:15.148Z,101492.47
2022-11-25T15:56:56.959Z,101496.97
2022-11-25T15:59:58.512Z,101501.94
2022-11-25T16:02:43.185Z,101506.25
2022-11-25T16:05:12.430Z,101509.97
2022-11-25T16:07:51.152Z,101510.88
2022-11-25T16:10:33.100Z,101508.59
2022-11-25T16:13:22.382Z,101513.75
2022-11-25T16:15:52.273Z,101515.13
2022-11-25T16:18:41.800Z,101517.03
2022-11-25T16:21:13.465Z,101516.84
2022-11-25T16:23:43.691Z,101525.75
2022-11-25T16:26:12.734Z,101533.41
2022-11-25T16:28:41.259Z,101535.50
2022-11-25T16:31:15.231Z,101530.59
2022-11-25T16:33:41.696Z,101538.88
2022-11-25T16:36:09.765Z,101538.16
2022-11-25T16:38:36.220Z,101539.75
2022-11-25T16:41:11.415Z,101547.75
2022-11-25T16:43:41.087Z,101549.41
2022-11-25T16:46:07.547Z,101559.19
2022-11-25T16:48:33.999Z,101560.03
2022-11-25T16:51:00.511Z,101563.63
2022-11-25T16:53:27.014Z,101575.38
2022-11-25T16:55:53.347Z,101575.31
2022-11-25T16:58:22.675Z,101583.09
2022-11-25T17:00:54.671Z,101591.00
2022-11-25T17:03:23.928Z,101592.31
2022-11-25T17:05:51.060Z,101592.31
2022-11-25T17:08:17.427Z,101594.91
2022-11-25T17:10:44.619Z,101605.28
2022-11-25T17:13:23.094Z,101611.75
2022-11-25T17:15:49.907Z,101611.69
2022-11-25T17:18:18.261Z,101615.78
2022-11-25T17:20:47.329Z,101623.38
2022-11-25T17:23:16.645Z,101629.03
2022-11-25T17:25:46.795Z,101628.56
2022-11-25T17:28:17.229Z,101639.50
2022-11-25T17:30:44.717Z,101635.13
2022-11-25T17:33:15.829Z,101641.34
2022-11-25T17:35:42.904Z,101642.91
2022-11-25T17:38:16.407Z,101659.88
2022-11-25T17:40:43.482Z,101653.13
2022-11-25T17:43:18.312Z,101663.78
2022-11-25T17:45:46.233Z,101670.69
2022-11-25T17:48:14.956Z,101675.75
2022-11-25T17:50:41.979Z,101676.44
2022-11-25T17:53:09.344Z,101688.97
2022-11-25T17:55:37.262Z,101697.59
2022-11-25T17:58:04.675Z,101692.66
2022-11-25T18:00:32.995Z,101697.09
2022-11-25T18:02:59.449Z,101699.53
2022-11-25T18:05:26.732Z,101695.94
2022-11-25T18:07:53.365Z,101707.25
2022-11-25T18:10:24.185Z,101711.50
2022-11-25T18:12:52.932Z,101715.09
2022-11-25T18:15:23.146Z,101722.28
2022-11-25T18:17:51.559Z,101722.97
2022-11-25T18:20:24.021Z,101725.03
2022-11-25T18:22:51.832Z,101735.03
2022-11-25T18:25:28.155Z,101736.75
2022-11-25T18:27:56.437Z,101737.44
2022-11-25T18:30:26.259Z,101741.78
2022-11-25T18:32:52.924Z,101744.16
2022-11-25T18:35:25.437Z,101749.97
2022-11-25T18:37:51.960Z,101752.75
2022-11-25T18:40:18.381Z,101755.88
2022-11-25T18:42:48.809Z,101758.63
2022-11-25T18:45:20.898Z,101763.72
2022-11-25T18:47:47.475Z,101771.13
2022-11-25T18:50:18.340Z,101764.03
2022-11-25T18:52:45.219Z,101769.53
2022-11-25T18:55:13.376Z,101773.97
2022-11-25T18:57:41.564Z,101776.63
2022-11-25T19:00:41.130Z,101782.06
2022-11-25T19:02:59.464Z,101789.28
2022-11-25T19:05:29.762Z,101786.53
2022-11-25T19:07:56.872Z,101794.63
2022-11-25T19:10:26.808Z,101798.09
2022-11-25T19:12:57.414Z,101802.59
2022-11-25T19:15:25.495Z,101807.31
2022-11-25T19:18:00.434Z,101808.31
2022-11-25T19:20:28.280Z,101813.56
2022-11-25T19:23:00.121Z,101823.00
2022-11-25T19:25:27.108Z,101822.03
2022-11-25T19:27:57.291Z,101827.31
2022-11-25T19:30:26.599Z,101828.19
2022-11-25T19:32:56.365Z,101828.28
2022-11-25T19:35:27.533Z,101841.94
2022-11-25T19:37:53.895Z,101849.88
2022-11-25T19:40:22.205Z,101851.53
2022-11-25T19:42:48.675Z,101851.59
2022-11-25T19:45:20.373Z,101863.94
2022-11-25T19:47:49.968Z,101866.13
2022-11-25T19:50:22.960Z,101863.44
2022-11-25T19:52:49.815Z,101867.47
2022-11-25T19:55:21.636Z,101869.34
2022-11-25T19:57:48.531Z,101881.38
2022-11-25T20:00:18.000Z,101885.66
2022-11-25T20:02:46.116Z,101882.31
2022-11-25T20:05:19.511Z,101884.91
2022-11-25T20:07:47.099Z,101886.78
2022-11-25T20:10:22.471Z,101891.69
2022-11-25T20:12:49.539Z,101901.16
2022-11-25T20:15:16.127Z,101905.91
2022-11-25T20:17:46.113Z,101911.22
2022-11-25T20:20:17.766Z,101913.13
2022-11-25T20:23:08.462Z,101919.22
2022-11-25T20:25:41.383Z,101929.13
2022-11-25T20:28:20.681Z,101929.47
2022-11-25T20:30:48.616Z,101930.19
2022-11-25T20:33:17.726Z,101937.53
2022-11-25T20:35:50.488Z,101945.44
2022-11-25T20:38:21.190Z,101946.66
2022-11-25T20:40:51.636Z,101948.19
2022-11-25T20:43:27.084Z,101956.41
2022-11-25T20:45:54.044Z,101955.19
2022-11-25T20:48:20.463Z,101950.94
2022-11-25T20:50:47.216Z,101959.72
2022-11-25T20:53:15.805Z,101961.78
2022-11-25T20:55:43.341Z,101963.59
2022-11-25T20:58:21.320Z,101972.03
2022-11-25T21:00:50.697Z,101974.06
2022-11-25T21:03:20.843Z,101977.72
2022-11-25T21:05:50.196Z,101981.34
2022-11-25T21:08:22.471Z,101983.53
2022-11-25T21:10:51.743Z,101983.72
2022-11-25T21:13:21.206Z,101983.78
2022-11-25T21:15:49.303Z,101992.88
2022-11-25T21:18:16.260Z,101992.91
2022-11-25T21:20:43.150Z,102001.16
2022-11-25T21:23:25.124Z,102001.34
2022-11-25T21:25:51.578Z,102005.19
2022-11-25T21:28:23.064Z,102011.47
2022-11-25T21:30:49.731Z,102015.75
2022-11-25T21:33:16.719Z,102019.84
2022-11-25T21:35:47.787Z,102019.03
2022-11-25T21:38:18.173Z,102022.13
2022-11-25T21:40:47.262Z,102030.81
2022-11-25T21:43:21.781Z,102027.59
2022-11-25T21:45:49.977Z,102034.00
2022-11-25T21:48:21.628Z,102036.09
2022-11-25T21:50:48.358Z,102038.69
2022-11-25T21:53:14.852Z,102045.09
2022-11-25T21:55:42.081Z,102050.47
2022-11-25T21:58:34.716Z,102053.13
2022-11-25T22:01:01.772Z,102055.78
2022-11-25T22:03:30.836Z,102055.16
2022-11-25T22:05:57.267Z,102060.88
2022-11-25T22:08:23.877Z,102052.28
2022-11-25T22:10:52.663Z,102056.88
2022-11-25T22:13:22.336Z,102062.13
2022-11-25T22:15:53.857Z,102072.75
2022-11-25T22:18:27.771Z,102072.75
2022-11-25T22:20:54.553Z,102070.94
2022-11-25T22:23:21.630Z,102077.22
2022-11-25T22:25:49.526Z,102078.31
2022-11-25T22:28:19.151Z,102082.81
2022-11-25T22:30:49.838Z,102080.84
2022-11-25T22:33:17.109Z,102077.50
2022-11-25T22:35:43.434Z,102082.97
2022-11-25T22:38:15.773Z,102081.38
2022-11-25T22:40:49.380Z,102082.31
2022-11-25T22:43:19.712Z,102100.94
2022-11-25T22:45:46.522Z,102106.28
2022-11-25T22:48:16.975Z,102105.50
2022-11-25T22:50:45.520Z,102107.22
2022-11-25T22:53:17.891Z,102114.44
2022-11-25T22:55:45.555Z,102113.78
2022-11-25T22:58:13.946Z,102113.94
2022-11-25T23:00:44.769Z,102128.03
2022-11-25T23:03:33.778Z,102128.94
2022-11-25T23:06:01.664Z,102141.50
2022-11-25T23:08:31.495Z,102133.63
2022-11-25T23:10:58.712Z,102142.34
2022-11-25T23:13:25.597Z,102134.53
2022-11-25T23:16:00.522Z,102142.59
2022-11-25T23:18:40.450Z,102148.94
2022-11-25T23:21:16.306Z,102149.09
2022-11-25T23:23:42.803Z,102153.41
2022-11-25T23:26:10.999Z,102153.53
2022-11-25T23:28:37.316Z,102158.00
2022-11-25T23:31:04.045Z,102160.94
2022-11-25T23:33:41.303Z,102159.47
2022-11-25T23:36:15.303Z,102161.25
2022-11-25T23:38:44.524Z,102162.13
2022-11-25T23:41:21.099Z,102164.66
2022-11-25T23:43:47.740Z,102161.38
2022-11-25T23:46:16.534Z,102170.25
2022-11-25T23:48:47.272Z,102169.31
2022-11-25T23:51:13.628Z,102176.53
2022-11-25T23:53:40.935Z,102178.91
2022-11-25T23:56:07.497Z,102180.00
2022-11-25T23:58:33.880Z,102181.84
